Time;durP1;ratioP1;P1;durP2;ratioP2;P2;SDS_P1;SDS_P2;PMS_P1;PMS_P2;Temp;Humidity;BMP_temperature;BMP_pressure;BME280_temperature;BME280_humidity;BME280_pressure;Samples;Min_cycle;Max_cycle;Signal;HPM_P1;HPM_P2
2023/06/25 00:01:23;;;;;;;1999.90;999.90;;;;;;;19.32;92.49;98208.38;5003344;28;20478;-75
2023/06/25 00:03:48;;;;;;;1999.90;999.90;;;;;;;19.23;93.28;98206.50;5003791;28;20030;-75
2023/06/25 00:06:19;;;;;;;1999.90;999.90;;;;;;;19.16;95.21;98213.78;5009392;28;20390;-74
2023/06/25 00:08:48;;;;;;;1999.90;999.90;;;;;;;19.15;95.96;98210.19;5009117;28;20549;-80
2023/06/25 00:11:14;;;;;;;1999.90;999.90;;;;;;;19.05;97.60;98215.38;5008650;28;20435;-77
2023/06/25 00:13:40;;;;;;;1999.90;999.90;;;;;;;18.92;99.60;98206.22;5012401;28;20030;-77
2023/06/25 00:16:06;;;;;;;1999.90;999.90;;;;;;;18.95;100.00;98216.63;5010405;28;20037;-76
2023/06/25 00:18:33;;;;;;;1999.90;999.90;;;;;;;19.03;100.00;98207.41;5009112;28;20030;-77
2023/06/25 00:20:58;;;;;;;1999.90;999.90;;;;;;;18.95;100.00;98205.53;5009186;28;20026;-77
2023/06/25 00:23:25;;;;;;;1999.90;999.90;;;;;;;18.88;100.00;98198.94;5013854;28;20560;-75
2023/06/25 00:25:51;;;;;;;1999.90;999.90;;;;;;;18.73;100.00;98192.13;5011305;28;20080;-76
2023/06/25 00:28:16;;;;;;;1999.90;999.90;;;;;;;18.81;100.00;98193.97;4988573;28;20018;-73
2023/06/25 00:30:43;;;;;;;1999.90;999.90;;;;;;;18.80;100.00;98192.34;5010649;28;20033;-75
2023/06/25 00:33:09;;;;;;;1999.90;999.90;;;;;;;18.95;100.00;98200.00;5009972;28;20082;-77
2023/06/25 00:35:49;;;;;;;1999.90;999.90;;;;;;;18.71;100.00;98194.41;5009924;28;20046;-75
2023/06/25 00:38:15;;;;;;;1999.90;999.90;;;;;;;18.75;100.00;98192.56;5013348;28;20105;-76
2023/06/25 00:40:41;;;;;;;1999.90;999.90;;;;;;;18.68;100.00;98182.03;5010449;28;20050;-75
2023/06/25 00:43:06;;;;;;;1999.90;999.90;;;;;;;18.54;100.00;98186.28;4986372;28;20058;-75
2023/06/25 00:45:33;;;;;;;1999.90;999.90;;;;;;;18.46;100.00;98176.03;5011583;28;20034;-75
2023/06/25 00:47:58;;;;;;;1999.90;999.90;;;;;;;18.66;100.00;98180.78;5007814;28;20030;-76
2023/06/25 00:50:24;;;;;;;1999.90;999.90;;;;;;;18.63;100.00;98173.97;5004887;28;20046;-75
2023/06/25 00:52:51;;;;;;;1999.90;999.90;;;;;;;18.61;100.00;98178.19;4983867;28;20030;-75
2023/06/25 00:55:19;;;;;;;1999.90;999.90;;;;;;;18.57;100.00;98177.28;4999295;28;20026;-76
2023/06/25 00:57:44;;;;;;;1999.90;999.90;;;;;;;18.56;100.00;98170.13;4997379;28;20538;-76
2023/06/25 01:00:16;;;;;;;1999.90;999.90;;;;;;;18.44;100.00;98167.28;4998334;28;20084;-74
2023/06/25 01:02:46;;;;;;;1999.90;999.90;;;;;;;18.28;100.00;98166.28;4996037;28;20067;-75
2023/06/25 01:05:28;;;;;;;1999.90;999.90;;;;;;;18.35;100.00;98167.38;5004908;28;20029;-74
2023/06/25 01:07:58;;;;;;;1999.90;999.90;;;;;;;18.38;100.00;98152.84;5003290;28;20629;-74
2023/06/25 01:10:24;;;;;;;1999.90;999.90;;;;;;;18.38;100.00;98154.78;5001645;28;20038;-73
2023/06/25 01:12:50;;;;;;;1999.90;999.90;;;;;;;18.40;100.00;98163.56;5003544;28;20024;-74
2023/06/25 01:15:15;;;;;;;1999.90;999.90;;;;;;;18.45;100.00;98161.38;5001195;28;20379;-73
2023/06/25 01:17:41;;;;;;;1999.90;999.90;;;;;;;18.38;100.00;98160.34;5002786;28;20093;-74
2023/06/25 01:20:11;;;;;;;1999.90;999.90;;;;;;;18.05;100.00;98161.13;5001665;28;20394;-74
2023/06/25 01:22:40;;;;;;;1999.90;999.90;;;;;;;18.11;100.00;98158.94;5000558;28;20383;-74
2023/06/25 01:25:06;;;;;;;1999.90;999.90;;;;;;;18.00;100.00;98153.03;5001791;28;20018;-73
2023/06/25 01:27:35;;;;;;;1999.90;999.90;;;;;;;18.06;100.00;98162.75;5002412;28;20081;-73
2023/06/25 01:30:07;;;;;;;1999.90;999.90;;;;;;;18.03;100.00;98157.06;4998468;28;20054;-73
2023/06/25 01:32:33;;;;;;;1999.90;999.90;;;;;;;17.97;100.00;98159.25;5000450;28;20022;-73
2023/06/25 01:34:58;;;;;;;1999.90;999.90;;;;;;;17.93;100.00;98161.06;5002566;28;20085;-73
2023/06/25 01:37:24;;;;;;;1999.90;999.90;;;;;;;17.95;100.00;98153.22;5001218;28;20049;-73
2023/06/25 01:39:52;;;;;;;1999.90;999.90;;;;;;;17.77;100.00;98148.97;5001545;28;20028;-73
2023/06/25 01:42:18;;;;;;;1999.90;999.90;;;;;;;17.62;100.00;98141.28;5002389;28;20002;-73
2023/06/25 01:44:43;;;;;;;1999.90;999.90;;;;;;;17.63;100.00;98140.13;5007868;28;20022;-74
2023/06/25 01:47:10;;;;;;;1999.90;999.90;;;;;;;17.59;100.00;98144.72;4983176;28;20030;-74
2023/06/25 01:49:35;;;;;;;1999.90;999.90;;;;;;;17.54;100.00;98145.69;5002226;28;20026;-73
2023/06/25 01:52:02;;;;;;;1999.90;999.90;;;;;;;17.53;100.00;98144.09;5000545;28;20747;-73
2023/06/25 01:54:27;;;;;;;1999.90;999.90;;;;;;;17.46;100.00;98145.75;5001199;28;20028;-74
2023/06/25 01:56:53;;;;;;;1999.90;999.90;;;;;;;17.42;100.00;98144.78;5002087;28;20116;-73
2023/06/25 01:59:18;;;;;;;1999.90;999.90;;;;;;;17.41;100.00;98141.25;5000074;28;20511;-73
2023/06/25 02:01:43;;;;;;;1999.90;999.90;;;;;;;17.36;100.00;98151.66;5001307;28;20046;-73
2023/06/25 02:04:09;;;;;;;1999.90;999.90;;;;;;;17.38;100.00;98143.84;5001404;28;20073;-72
2023/06/25 02:06:34;;;;;;;1999.90;999.90;;;;;;;17.46;100.00;98148.50;4999905;28;20121;-73
2023/06/25 02:08:59;;;;;;;1999.90;999.90;;;;;;;17.29;100.00;98143.09;5002260;28;20043;-73
2023/06/25 02:11:25;;;;;;;1999.90;999.90;;;;;;;17.29;100.00;98143.09;4997337;28;20049;-73
2023/06/25 02:13:50;;;;;;;1999.90;999.90;;;;;;;17.42;100.00;98147.56;5006858;28;20018;-73
2023/06/25 02:16:15;;;;;;;1999.90;999.90;;;;;;;17.41;100.00;98141.25;5003608;28;20034;-73
2023/06/25 02:18:41;;;;;;;1999.90;999.90;;;;;;;17.38;100.00;98141.91;4996398;28;20018;-72
2023/06/25 02:21:06;;;;;;;1999.90;999.90;;;;;;;17.41;100.00;98143.19;5000383;28;20038;-72
2023/06/25 02:23:31;;;;;;;1999.90;999.90;;;;;;;17.45;100.00;98146.88;5001354;28;20060;-73
2023/06/25 02:25:57;;;;;;;1999.90;999.90;;;;;;;17.53;100.00;98146.03;4999748;28;20148;-73
2023/06/25 02:28:22;;;;;;;1999.90;999.90;;;;;;;17.38;100.00;98141.91;5001303;28;20018;-72
2023/06/25 02:30:48;;;;;;;1999.90;999.90;;;;;;;17.33;100.00;98150.38;4998831;28;20132;-73
2023/06/25 02:33:13;;;;;;;1999.90;999.90;;;;;;;17.36;100.00;98143.38;5001735;28;20417;-74
2023/06/25 02:35:39;;;;;;;1999.90;999.90;;;;;;;17.42;100.00;98137.31;4999943;28;20030;-72
2023/06/25 02:38:04;;;;;;;1999.90;999.90;;;;;;;17.52;100.00;98147.97;4998173;28;20054;-73
2023/06/25 02:40:30;;;;;;;1999.90;999.90;;;;;;;17.34;100.00;98138.19;5001497;28;20045;-73
2023/06/25 02:42:56;;;;;;;1999.90;999.90;;;;;;;17.25;100.00;98147.66;4982396;28;20053;-73
2023/06/25 02:45:22;;;;;;;1999.90;999.90;;;;;;;17.27;100.00;98140.66;5001076;28;20022;-72
2023/06/25 02:47:48;;;;;;;1999.90;999.90;;;;;;;17.22;100.00;98145.56;5000298;28;20033;-72
2023/06/25 02:50:13;;;;;;;1999.90;999.90;;;;;;;17.11;100.00;98139.59;4999338;28;20029;-73
2023/06/25 02:52:38;;;;;;;1999.90;999.90;;;;;;;17.07;100.00;98133.16;5001079;28;20041;-73
2023/06/25 02:55:04;;;;;;;1999.90;999.90;;;;;;;17.01;100.00;98137.22;5000163;28;20030;-72
2023/06/25 02:57:30;;;;;;;1999.90;999.90;;;;;;;17.02;100.00;98138.84;5001047;28;20040;-72
2023/06/25 02:59:59;;;;;;;1999.90;999.90;;;;;;;16.98;100.00;98143.41;5002636;28;20076;-73
2023/06/25 03:02:24;;;;;;;1999.90;999.90;;;;;;;16.96;100.00;98148.47;5003482;28;20037;-74
2023/06/25 03:04:50;;;;;;;1999.90;999.90;;;;;;;16.81;100.00;98147.06;5000343;28;20383;-74
2023/06/25 03:07:15;;;;;;;1999.90;999.90;;;;;;;16.70;100.00;98154.09;4998914;28;20030;-73
2023/06/25 03:09:41;;;;;;;1999.90;999.90;;;;;;;16.58;100.00;98145.69;5001065;28;20419;-73
2023/06/25 03:12:07;;;;;;;1999.90;999.90;;;;;;;16.49;100.00;98150.38;4999714;28;20034;-73
2023/06/25 03:14:33;;;;;;;1999.90;999.90;;;;;;;16.39;100.00;98159.81;4998822;28;20378;-73
2023/06/25 03:16:59;;;;;;;1999.90;999.90;;;;;;;16.31;100.00;98155.16;5000893;28;20022;-74
2023/06/25 03:19:24;;;;;;;1999.90;999.90;;;;;;;16.43;100.00;98157.22;4999575;28;20382;-73
2023/06/25 03:21:50;;;;;;;1999.90;999.90;;;;;;;16.48;100.00;98166.13;4999422;28;20018;-73
2023/06/25 03:24:15;;;;;;;1999.90;999.90;;;;;;;16.63;100.00;98159.34;5000563;28;20045;-74
2023/06/25 03:26:40;;;;;;;1999.90;999.90;;;;;;;16.58;100.00;98159.50;4998784;28;20022;-74
2023/06/25 03:29:06;;;;;;;1999.90;999.90;;;;;;;16.64;100.00;98166.47;4999640;28;20087;-74
2023/06/25 03:31:31;;;;;;;1999.90;999.90;;;;;;;17.05;100.00;98163.06;5000154;28;20026;-73
2023/06/25 03:33:57;;;;;;;1999.90;999.90;;;;;;;17.40;100.00;98174.75;5002331;28;20383;-73
2023/06/25 03:36:22;;;;;;;1999.90;999.90;;;;;;;17.62;100.00;98175.28;5002532;28;20177;-74
2023/06/25 03:38:48;;;;;;;1999.90;999.90;;;;;;;17.74;100.00;98179.28;5003392;28;20026;-73
2023/06/25 03:41:13;;;;;;;1999.90;999.90;;;;;;;17.69;100.00;98185.00;4986746;28;20014;-73
2023/06/25 03:43:39;;;;;;;1999.90;999.90;;;;;;;18.68;100.00;98179.28;5004747;28;20817;-74
2023/06/25 03:46:04;;;;;;;1999.90;999.90;;;;;;;19.80;98.63;98175.03;5002644;28;20104;-73
2023/06/25 03:48:29;;;;;;;1999.90;999.90;;;;;;;20.35;92.60;98184.66;5002466;28;20052;-73
2023/06/25 03:50:55;;;;;;;1999.90;999.90;;;;;;;20.50;90.60;98192.22;5004198;28;20030;-73
2023/06/25 03:53:21;;;;;;;1999.90;999.90;;;;;;;20.83;87.36;98189.97;4981833;28;20479;-73
2023/06/25 03:55:46;;;;;;;1999.90;999.90;;;;;;;21.54;83.06;98205.72;5003376;28;20022;-73
2023/06/25 03:58:11;;;;;;;1999.90;999.90;;;;;;;21.77;79.63;98198.31;5003680;28;20495;-73
2023/06/25 04:00:37;;;;;;;1999.90;999.90;;;;;;;22.07;77.34;98193.84;5001884;28;20022;-73
2023/06/25 04:03:02;;;;;;;1999.90;999.90;;;;;;;21.67;79.09;98201.66;5003898;28;20040;-73
2023/06/25 04:05:28;;;;;;;1999.90;999.90;;;;;;;21.88;76.96;98193.78;5002931;28;20049;-73
2023/06/25 04:07:53;;;;;;;1999.90;999.90;;;;;;;22.66;73.72;98204.69;5002110;28;20037;-73
2023/06/25 04:10:18;;;;;;;1999.90;999.90;;;;;;;22.41;72.98;98206.94;5002222;28;20018;-73
2023/06/25 04:12:44;;;;;;;1999.90;999.90;;;;;;;21.60;76.86;98198.69;5003525;28;20018;-73
2023/06/25 04:15:09;;;;;;;1999.90;999.90;;;;;;;21.86;76.14;98198.94;5003268;28;20031;-74
2023/06/25 04:17:35;;;;;;;1999.90;999.90;;;;;;;23.04;69.80;98195.44;5002199;28;20108;-74
2023/06/25 04:20:00;;;;;;;1999.90;999.90;;;;;;;23.62;66.53;98204.41;5004202;28;20013;-74
2023/06/25 04:22:25;;;;;;;1999.90;999.90;;;;;;;23.87;64.08;98205.59;5004595;28;20076;-74
2023/06/25 04:24:50;;;;;;;1999.90;999.90;;;;;;;23.72;64.72;98216.94;5006183;28;20020;-74
2023/06/25 04:27:16;;;;;;;1999.90;999.90;;;;;;;22.83;68.53;98214.56;4996765;28;20026;-73
2023/06/25 04:29:41;;;;;;;1999.90;999.90;;;;;;;21.81;73.31;98213.94;5003509;28;20030;-73
2023/06/25 04:32:07;;;;;;;1999.90;999.90;;;;;;;20.79;80.36;98209.34;5003739;28;20101;-74
2023/06/25 04:34:32;;;;;;;1999.90;999.90;;;;;;;20.19;85.55;98202.03;4993176;28;20467;-73
2023/06/25 04:36:57;;;;;;;1999.90;999.90;;;;;;;19.92;89.75;98194.47;4993038;28;20070;-73
2023/06/25 04:39:23;;;;;;;1999.90;999.90;;;;;;;19.58;93.49;98189.41;4975510;28;20033;-74
2023/06/25 04:41:48;;;;;;;1999.90;999.90;;;;;;;19.73;91.92;98185.94;4993383;28;20054;-73
2023/06/25 04:44:13;;;;;;;1999.90;999.90;;;;;;;19.80;92.09;98186.16;4984817;28;20526;-71
2023/06/25 04:46:39;;;;;;;1999.90;999.90;;;;;;;19.46;93.53;98186.66;4973303;28;20061;-71
2023/06/25 04:49:04;;;;;;;1999.90;999.90;;;;;;;19.67;92.24;98192.91;4973448;28;20035;-72
2023/06/25 04:51:29;;;;;;;1999.90;999.90;;;;;;;19.64;92.76;98199.94;4973457;28;20054;-72
2023/06/25 04:53:55;;;;;;;1999.90;999.90;;;;;;;19.61;92.88;98205.38;4973169;28;20089;-71
2023/06/25 04:56:20;;;;;;;1999.90;999.90;;;;;;;19.66;92.84;98205.16;4977137;28;20041;-72
2023/06/25 04:58:45;;;;;;;1999.90;999.90;;;;;;;19.86;89.70;98193.06;4972919;28;20034;-72
2023/06/25 05:01:11;;;;;;;1999.90;999.90;;;;;;;19.73;91.20;98192.28;4973229;28;20033;-72
2023/06/25 05:03:36;;;;;;;1999.90;999.90;;;;;;;19.71;91.72;98193.81;4973058;28;20031;-72
2023/06/25 05:06:01;;;;;;;1999.90;999.90;;;;;;;19.82;90.43;98200.50;4973178;28;20092;-71
2023/06/25 05:08:27;;;;;;;1999.90;999.90;;;;;;;19.91;89.97;98198.41;4973329;28;20030;-73
2023/06/25 05:10:52;;;;;;;1999.90;999.90;;;;;;;20.00;89.20;98199.06;4975091;28;20369;-72
2023/06/25 05:13:17;;;;;;;1999.90;999.90;;;;;;;20.07;88.76;98201.25;4973376;28;20104;-71
2023/06/25 05:15:43;;;;;;;1999.90;999.90;;;;;;;20.32;86.36;98202.03;4972769;28;20494;-71
2023/06/25 05:18:09;;;;;;;1999.90;999.90;;;;;;;20.32;86.10;98193.69;4972947;28;20042;-71
2023/06/25 05:20:38;;;;;;;1999.90;999.90;;;;;;;20.39;88.81;98196.69;4978614;28;20027;-71
2023/06/25 05:23:05;;;;;;;1999.90;999.90;;;;;;;20.53;88.31;98200.66;4992182;28;20053;-70
2023/06/25 05:25:31;;;;;;;1999.90;999.90;;;;;;;20.44;86.75;98191.66;4992160;28;20030;-70
2023/06/25 05:27:57;;;;;;;1999.90;999.90;;;;;;;20.39;86.58;98199.47;4991895;28;20041;-71
2023/06/25 05:30:22;;;;;;;1999.90;999.90;;;;;;;20.20;85.92;98186.19;4991906;28;20039;-70
2023/06/25 05:32:47;;;;;;;1999.90;999.90;;;;;;;20.40;85.02;98187.16;4992158;28;20026;-70
2023/06/25 05:35:13;;;;;;;1999.90;999.90;;;;;;;20.52;84.29;98189.88;4991823;28;20113;-71
2023/06/25 05:37:38;;;;;;;1999.90;999.90;;;;;;;20.76;83.60;98189.78;4991747;28;20050;-71
2023/06/25 05:40:04;;;;;;;1999.90;999.90;;;;;;;20.90;81.90;98195.72;4992064;28;20026;-71
2023/06/25 05:42:29;;;;;;;1999.90;999.90;;;;;;;20.47;83.13;98192.94;5001448;28;20129;-70
2023/06/25 05:44:54;;;;;;;1999.90;999.90;;;;;;;20.22;85.75;98194.97;5011391;28;20356;-71
2023/06/25 05:47:20;;;;;;;1999.90;999.90;;;;;;;20.46;84.65;98186.56;5011312;28;20120;-71
2023/06/25 05:49:45;;;;;;;1999.90;999.90;;;;;;;20.77;80.27;98192.19;5011183;28;20109;-71
2023/06/25 05:52:10;;;;;;;1999.90;999.90;;;;;;;20.89;79.64;98190.50;5011339;28;20018;-72
2023/06/25 05:54:36;;;;;;;1999.90;999.90;;;;;;;20.79;79.45;98189.88;5011206;28;20030;-72
2023/06/25 05:57:01;;;;;;;1999.90;999.90;;;;;;;21.02;78.39;98192.84;5010492;28;20065;-72
2023/06/25 05:59:26;;;;;;;1999.90;999.90;;;;;;;21.31;76.80;98199.97;5011200;28;20076;-70
2023/06/25 06:01:52;;;;;;;1999.90;999.90;;;;;;;21.06;78.30;98190.97;5011214;28;20068;-71
2023/06/25 06:04:18;;;;;;;1999.90;999.90;;;;;;;21.06;77.54;98187.38;5010987;28;20117;-72
2023/06/25 06:06:43;;;;;;;1999.90;999.90;;;;;;;21.31;76.13;98195.22;5012828;28;20025;-70
2023/06/25 06:09:08;;;;;;;1999.90;999.90;;;;;;;21.51;75.75;98193.34;5010945;28;20022;-71
2023/06/25 06:11:34;;;;;;;1999.90;999.90;;;;;;;21.50;76.97;98179.75;4993763;28;20462;-71
2023/06/25 06:13:59;;;;;;;1999.90;999.90;;;;;;;21.79;75.22;98190.41;5010766;28;20026;-72
2023/06/25 06:16:24;;;;;;;1999.90;999.90;;;;;;;21.98;71.97;98198.84;5010926;28;20132;-70
2023/06/25 06:18:49;;;;;;;1999.90;999.90;;;;;;;22.07;71.71;98188.28;5010861;28;20026;-70
2023/06/25 06:21:15;;;;;;;1999.90;999.90;;;;;;;21.96;71.85;98200.38;4999309;28;20034;-70
2023/06/25 06:23:40;;;;;;;1999.90;999.90;;;;;;;21.98;72.13;98192.44;4991301;28;20022;-71
2023/06/25 06:26:05;;;;;;;1999.90;999.90;;;;;;;22.00;71.73;98188.13;4994185;28;20117;-71
2023/06/25 06:28:31;;;;;;;1999.90;999.90;;;;;;;22.30;71.49;98191.94;5000611;28;20028;-70
2023/06/25 06:30:56;;;;;;;1999.90;999.90;;;;;;;22.49;68.70;98193.16;5000322;28;20374;-69
2023/06/25 06:33:21;;;;;;;1999.90;999.90;;;;;;;22.68;68.79;98195.97;5005599;28;20463;-70
2023/06/25 06:35:47;;;;;;;1999.90;999.90;;;;;;;22.49;68.72;98193.16;5002437;28;20030;-71
2023/06/25 06:38:12;;;;;;;1999.90;999.90;;;;;;;22.61;68.88;98179.03;5009041;28;20038;-70
2023/06/25 06:40:37;;;;;;;1999.90;999.90;;;;;;;23.36;65.67;98196.81;5010668;28;20507;-69
2023/06/25 06:43:02;;;;;;;1999.90;999.90;;;;;;;23.04;65.34;98192.66;5010883;28;20022;-78
2023/06/25 06:45:28;;;;;;;1999.90;999.90;;;;;;;22.87;63.57;98204.28;5011599;28;20045;-81
2023/06/25 06:47:53;;;;;;;1999.90;999.90;;;;;;;23.04;64.90;98197.41;5008870;28;20038;-81
2023/06/25 06:50:19;;;;;;;1999.90;999.90;;;;;;;23.09;65.13;98195.13;5016098;28;20026;-81
2023/06/25 06:52:45;;;;;;;1999.90;999.90;;;;;;;23.61;63.52;98199.22;5016029;28;20048;-82
2023/06/25 06:55:10;;;;;;;1999.90;999.90;;;;;;;23.64;61.94;98190.09;5018208;28;20502;-81
2023/06/25 06:57:36;;;;;;;1999.90;999.90;;;;;;;23.27;60.99;98190.69;5012317;28;20022;-80
2023/06/25 07:00:04;;;;;;;1999.90;999.90;;;;;;;22.87;62.65;98193.09;5013847;28;20017;-81
2023/06/25 07:02:30;;;;;;;1999.90;999.90;;;;;;;22.87;63.24;98195.91;5011820;28;20057;-82
2023/06/25 07:04:55;;;;;;;1999.90;999.90;;;;;;;22.97;63.58;98192.50;4990288;28;20033;-77
2023/06/25 07:07:21;;;;;;;1999.90;999.90;;;;;;;22.69;64.65;98187.19;4974653;28;20031;-83
2023/06/25 07:09:56;;;;;;;1999.90;999.90;;;;;;;23.13;63.75;98187.63;4994808;28;20027;-82
2023/06/25 07:12:21;;;;;;;;;;;;;;;23.69;61.71;98179.41;4986968;28;20025;-79
2023/06/25 07:14:46;;;;;;;1999.90;999.90;;;;;;;23.76;61.12;98175.91;4995513;28;19925;-79
2023/06/25 07:17:12;;;;;;;1999.90;999.90;;;;;;;23.86;61.45;98172.47;4994660;28;20029;-79
2023/06/25 07:19:37;;;;;;;1999.90;999.90;;;;;;;24.19;60.49;98183.72;4995302;28;20464;-77
2023/06/25 07:22:03;;;;;;;1999.90;999.90;;;;;;;23.88;60.66;98175.69;4998482;28;20053;-77
2023/06/25 07:24:28;;;;;;;1999.90;999.90;;;;;;;24.47;59.70;98177.69;4997110;28;20041;-77
2023/06/25 07:26:53;;;;;;;1999.90;999.90;;;;;;;24.81;57.45;98172.91;4993920;28;20121;-79
2023/06/25 07:29:19;;;;;;;1999.90;999.90;;;;;;;24.95;55.23;98173.06;4990804;28;20077;-76
2023/06/25 07:31:44;;;;;;;1999.90;999.90;;;;;;;24.34;55.86;98165.94;4992664;28;20073;-73
2023/06/25 07:34:10;;;;;;;1999.90;999.90;;;;;;;24.69;55.56;98167.53;4993143;28;20038;-75
2023/06/25 07:36:35;;;;;;;1999.90;999.90;;;;;;;24.13;56.60;98160.09;4993485;28;20046;-77
2023/06/25 07:39:03;;;;;;;1999.90;999.90;;;;;;;24.35;56.67;98161.16;4993210;28;20022;-77
2023/06/25 07:41:29;;;;;;;1999.90;999.90;;;;;;;24.30;56.20;98155.91;4993739;28;20033;-76
2023/06/25 07:43:55;;;;;;;1999.90;999.90;;;;;;;24.24;56.39;98155.47;4993613;28;20125;-76
2023/06/25 07:46:21;;;;;;;1999.90;999.90;;;;;;;24.57;55.36;98156.63;4994534;28;20080;-79
2023/06/25 07:48:46;;;;;;;1999.90;999.90;;;;;;;24.50;54.84;98146.97;5001082;28;20030;-80
2023/06/25 07:51:12;;;;;;;1999.90;999.90;;;;;;;24.37;55.56;98151.19;5004684;28;20869;-79
2023/06/25 07:53:38;;;;;;;1999.90;999.90;;;;;;;24.19;56.02;98144.59;5001902;28;20030;-75
2023/06/25 07:56:03;;;;;;;1999.90;999.90;;;;;;;24.36;56.14;98148.78;4993443;28;20034;-72
2023/06/25 07:58:28;;;;;;;1999.90;999.90;;;;;;;24.57;53.48;98139.84;4995890;28;20014;-73
2023/06/25 08:00:54;;;;;;;1999.90;999.90;;;;;;;24.88;53.92;98143.00;5001343;28;20040;-75
2023/06/25 08:03:19;;;;;;;1999.90;999.90;;;;;;;25.19;51.87;98138.88;5002184;28;20061;-77
2023/06/25 08:05:44;;;;;;;1999.90;999.90;;;;;;;25.63;50.18;98135.25;5000622;28;20561;-75
2023/06/25 08:08:10;;;;;;;1999.90;999.90;;;;;;;25.29;51.16;98131.75;5003351;28;20030;-73
2023/06/25 08:10:35;;;;;;;1999.90;999.90;;;;;;;25.49;51.17;98131.16;5001981;28;20017;-77
2023/06/25 08:13:00;;;;;;;1999.90;999.90;;;;;;;25.74;50.03;98133.34;5002220;28;20380;-76
2023/06/25 08:15:25;;;;;;;1999.90;999.90;;;;;;;25.09;50.54;98122.81;4985023;28;20121;-78
2023/06/25 08:17:51;;;;;;;1999.90;999.90;;;;;;;24.94;51.29;98115.47;5000139;28;20472;-75
2023/06/25 08:20:16;;;;;;;1999.90;999.90;;;;;;;25.45;50.01;98119.09;4999141;28;20026;-76
2023/06/25 08:22:41;;;;;;;1999.90;999.90;;;;;;;25.61;49.86;98123.63;5005904;28;20104;-76
2023/06/25 08:25:21;;;;;;;1999.90;999.90;;;;;;;25.97;49.79;98133.84;4988670;28;20061;-75
2023/06/25 08:27:46;;;;;;;1999.90;999.90;;;;;;;26.02;48.03;98127.88;5007530;28;20398;-76
2023/06/25 08:30:12;;;;;;;1999.90;999.90;;;;;;;25.87;46.78;98129.81;5011585;28;20041;-80
2023/06/25 08:32:37;;;;;;;1999.90;999.90;;;;;;;26.15;47.09;98131.16;4994134;28;20718;-75
2023/06/25 08:35:03;;;;;;;1999.90;999.90;;;;;;;26.07;47.70;98138.72;5011842;28;20028;-75
2023/06/25 08:37:28;;;;;;;1999.90;999.90;;;;;;;25.15;50.59;98115.66;5011615;28;20046;-75
2023/06/25 08:39:53;;;;;;;1999.90;999.90;;;;;;;26.08;48.47;98134.72;5011987;28;20018;-75
2023/06/25 08:42:19;;;;;;;1999.90;999.90;;;;;;;26.56;46.29;98127.72;5017179;28;20068;-73
2023/06/25 08:44:44;;;;;;;1999.90;999.90;;;;;;;26.03;47.35;98133.09;5003709;28;20113;-75
2023/06/25 08:47:11;;;;;;;1999.90;999.90;;;;;;;26.05;48.23;98127.09;4991980;28;20042;-73
2023/06/25 08:49:39;;;;;;;1999.90;999.90;;;;;;;25.72;48.10;98124.53;4991689;28;20022;-74
2023/06/25 08:52:05;;;;;;;1999.90;999.90;;;;;;;26.05;46.59;98129.91;4998037;28;20061;-74
2023/06/25 08:54:31;;;;;;;1999.90;999.90;;;;;;;25.89;46.81;98126.59;4990556;28;20056;-73
2023/06/25 08:56:58;;;;;;;1999.90;999.90;;;;;;;26.53;45.68;98131.31;4991373;28;20034;-74
2023/06/25 08:59:24;;;;;;;1999.90;999.90;;;;;;;26.58;44.60;98130.13;4990973;28;20046;-74
2023/06/25 09:01:49;;;;;;;1999.90;999.90;;;;;;;26.96;43.73;98131.44;4990990;28;20065;-71
2023/06/25 09:04:14;;;;;;;1999.90;999.90;;;;;;;27.62;42.32;98133.50;4998137;28;20022;-74
2023/06/25 09:06:40;;;;;;;1999.90;999.90;;;;;;;27.42;42.74;98135.09;4992779;28;20030;-74
2023/06/25 09:09:08;;;;;;;1999.90;999.90;;;;;;;26.30;45.54;98119.63;4993267;28;20027;-79
2023/06/25 09:11:34;;;;;;;1999.90;999.90;;;;;;;26.66;45.01;98125.34;4993173;28;20018;-74
2023/06/25 09:14:00;;;;;;;1999.90;999.90;;;;;;;26.20;45.00;98114.78;4993508;28;20471;-72
2023/06/25 09:16:26;;;;;;;1999.90;999.90;;;;;;;26.32;44.88;98120.03;4975510;28;20035;-74
2023/06/25 09:18:53;;;;;;;1999.90;999.90;;;;;;;26.72;44.09;98116.13;4993844;28;20018;-76
2023/06/25 09:21:18;;;;;;;1999.90;999.90;;;;;;;26.60;44.02;98108.06;4994022;28;20042;-73
2023/06/25 09:23:50;;;;;;;1999.90;999.90;;;;;;;26.98;43.71;98110.19;4990929;28;20379;-74
2023/06/25 09:26:15;;;;;;;1999.90;999.90;;;;;;;27.64;41.77;98105.78;4977247;28;20106;-75
2023/06/25 09:28:49;;;;;;;1999.90;999.90;;;;;;;27.00;42.87;98112.59;4991615;28;20120;-73
2023/06/25 09:31:17;;;;;;;1999.90;999.90;;;;;;;27.10;42.65;98106.16;5007760;28;20068;-74
2023/06/25 09:33:50;;;;;;;1999.90;999.90;;;;;;;27.26;42.06;98108.59;4996103;28;20022;-73
2023/06/25 09:36:16;;;;;;;1999.90;999.90;;;;;;;27.27;41.70;98107.38;4977141;28;20046;-71
2023/06/25 09:38:45;;;;;;;1999.90;999.90;;;;;;;26.90;42.27;98097.34;4991224;28;20113;-70
2023/06/25 09:41:14;;;;;;;1999.90;999.90;;;;;;;26.55;44.32;98100.88;4992369;28;20030;-74
2023/06/25 09:43:42;;;;;;;1999.90;999.90;;;;;;;26.54;44.72;98107.66;4994778;28;20041;-82
2023/06/25 09:46:08;;;;;;;1999.90;999.90;;;;;;;25.68;50.99;98090.84;4984479;28;20022;-73
2023/06/25 09:48:36;;;;;;;1999.90;999.90;;;;;;;25.77;45.42;98090.50;4994465;28;20033;-71
2023/06/25 09:51:03;;;;;;;1999.90;999.90;;;;;;;26.24;50.33;98084.75;4991555;28;20060;-71
2023/06/25 09:53:31;;;;;;;1999.90;999.90;;;;;;;26.83;48.58;98085.31;4976292;28;20018;-75
2023/06/25 09:55:57;;;;;;;1999.90;999.90;;;;;;;26.90;43.51;98090.94;4990927;28;20022;-74
2023/06/25 09:58:24;;;;;;;1999.90;999.90;;;;;;;26.31;44.44;98076.34;4991011;28;20026;-79
2023/06/25 10:00:50;;;;;;;1999.90;999.90;;;;;;;25.84;44.87;98073.72;4990213;28;20483;-75
2023/06/25 10:03:17;;;;;;;1999.90;999.90;;;;;;;25.79;46.63;98079.69;4990977;28;20034;-74
2023/06/25 10:05:43;;;;;;;1999.90;999.90;;;;;;;25.62;46.28;98072.00;4990874;28;20117;-74
2023/06/25 10:08:09;;;;;;;1999.90;999.90;;;;;;;26.04;51.86;98060.97;4990782;28;20121;-74
2023/06/25 10:10:34;;;;;;;1999.90;999.90;;;;;;;26.27;45.56;98074.72;4989860;28;20034;-75
2023/06/25 10:13:03;;;;;;;1999.90;999.90;;;;;;;26.90;47.76;98068.47;4987893;28;20066;-75
2023/06/25 10:15:36;;;;;;;1999.90;999.90;;;;;;;27.18;45.13;98076.91;4988018;28;20030;-76
2023/06/25 10:18:04;;;;;;;1999.90;999.90;;;;;;;27.28;41.88;98073.28;4990945;28;20491;-74
2023/06/25 10:20:30;;;;;;;1999.90;999.90;;;;;;;27.26;42.25;98072.88;4990218;28;20066;-73
2023/06/25 10:23:08;;;;;;;1999.90;999.90;;;;;;;26.60;45.29;98068.78;4990387;28;20097;-74
2023/06/25 10:25:39;;;;;;;1999.90;999.90;;;;;;;26.73;42.72;98063.59;4985459;28;20109;-74
2023/06/25 10:28:15;;;;;;;1999.90;999.90;;;;;;;26.50;42.42;98066.78;4989974;28;20438;-74
2023/06/25 10:30:46;;;;;;;1999.90;999.90;;;;;;;27.14;44.56;98062.84;4990144;28;20056;-74
2023/06/25 10:33:16;;;;;;;1999.90;999.90;;;;;;;27.46;41.42;98068.47;4990270;28;20038;-74
2023/06/25 10:35:44;;;;;;;1999.90;999.90;;;;;;;26.60;42.26;98075.19;4990234;28;20031;-74
2023/06/25 10:38:09;;;;;;;1999.90;999.90;;;;;;;26.81;43.62;98068.06;4990409;28;20606;-73
2023/06/25 10:40:37;;;;;;;1999.90;999.90;;;;;;;26.66;43.10;98072.81;4990162;28;20129;-76
2023/06/25 10:43:03;;;;;;;1999.90;999.90;;;;;;;26.91;43.51;98047.63;4988423;28;20088;-74
2023/06/25 10:45:29;;;;;;;1999.90;999.90;;;;;;;27.58;41.80;98053.97;4987516;28;20026;-75
2023/06/25 10:48:26;;;;;;;1999.90;999.90;;;;;;;27.56;41.29;98049.97;4988175;28;20030;-75